sensor_id;sensor_type;location;lat;lon;timestamp;P1;durP1;ratioP1;P2;durP2;ratioP2
23078;SDS011;11707;50.830;4.364;2023-11-19T00:00:49;9.57;;;5.18;;
23078;SDS011;11707;50.830;4.364;2023-11-19T00:03:16;10.73;;;5.65;;
23078;SDS011;11707;50.830;4.364;2023-11-19T00:05:44;16.95;;;5.55;;
23078;SDS011;11707;50.830;4.364;2023-11-19T00:08:12;13.85;;;5.40;;
23078;SDS011;11707;50.830;4.364;2023-11-19T00:10:38;12.10;;;5.80;;
23078;SDS011;11707;50.830;4.364;2023-11-19T00:13:03;14.15;;;4.55;;
23078;SDS011;11707;50.830;4.364;2023-11-19T00:15:29;11.82;;;4.90;;
23078;SDS011;11707;50.830;4.364;2023-11-19T00:17:57;14.10;;;4.55;;
23078;SDS011;11707;50.830;4.364;2023-11-19T00:20:26;10.23;;;4.32;;
23078;SDS011;11707;50.830;4.364;2023-11-19T00:22:51;14.27;;;4.72;;
23078;SDS011;11707;50.830;4.364;2023-11-19T00:25:17;9.65;;;3.55;;
23078;SDS011;11707;50.830;4.364;2023-11-19T00:27:44;13.55;;;4.03;;
23078;SDS011;11707;50.830;4.364;2023-11-19T00:30:09;14.02;;;4.32;;
23078;SDS011;11707;50.830;4.364;2023-11-19T00:32:35;14.77;;;4.35;;
23078;SDS011;11707;50.830;4.364;2023-11-19T00:35:03;11.85;;;3.90;;
23078;SDS011;11707;50.830;4.364;2023-11-19T00:37:29;12.90;;;4.00;;
23078;SDS011;11707;50.830;4.364;2023-11-19T00:39:55;14.07;;;3.22;;
23078;SDS011;11707;50.830;4.364;2023-11-19T00:42:26;9.13;;;3.08;;
23078;SDS011;11707;50.830;4.364;2023-11-19T00:44:52;9.25;;;3.55;;
23078;SDS011;11707;50.830;4.364;2023-11-19T00:47:18;13.30;;;3.85;;
23078;SDS011;11707;50.830;4.364;2023-11-19T00:49:46;12.82;;;3.60;;
23078;SDS011;11707;50.830;4.364;2023-11-19T00:52:13;10.23;;;2.85;;
23078;SDS011;11707;50.830;4.364;2023-11-19T00:54:40;12.95;;;3.08;;
23078;SDS011;11707;50.830;4.364;2023-11-19T00:57:08;15.57;;;3.47;;
23078;SDS011;11707;50.830;4.364;2023-11-19T00:59:33;12.27;;;3.17;;
23078;SDS011;11707;50.830;4.364;2023-11-19T01:01:59;13.18;;;3.15;;
23078;SDS011;11707;50.830;4.364;2023-11-19T01:04:29;12.45;;;3.13;;
23078;SDS011;11707;50.830;4.364;2023-11-19T01:06:55;12.30;;;2.80;;
23078;SDS011;11707;50.830;4.364;2023-11-19T01:09:20;15.98;;;3.47;;
23078;SDS011;11707;50.830;4.364;2023-11-19T01:11:46;13.73;;;3.53;;
23078;SDS011;11707;50.830;4.364;2023-11-19T01:14:12;15.35;;;3.45;;
23078;SDS011;11707;50.830;4.364;2023-11-19T01:16:37;13.65;;;3.10;;
23078;SDS011;11707;50.830;4.364;2023-11-19T01:19:06;17.17;;;2.70;;
23078;SDS011;11707;50.830;4.364;2023-11-19T01:21:31;12.93;;;3.70;;
23078;SDS011;11707;50.830;4.364;2023-11-19T01:23:57;14.85;;;3.63;;
23078;SDS011;11707;50.830;4.364;2023-11-19T01:26:24;16.25;;;4.18;;
23078;SDS011;11707;50.830;4.364;2023-11-19T01:28:50;22.83;;;4.15;;
23078;SDS011;11707;50.830;4.364;2023-11-19T01:31:17;20.13;;;3.88;;
23078;SDS011;11707;50.830;4.364;2023-11-19T01:33:43;16.67;;;3.90;;
23078;SDS011;11707;50.830;4.364;2023-11-19T01:36:09;17.40;;;3.83;;
23078;SDS011;11707;50.830;4.364;2023-11-19T01:38:38;16.08;;;2.55;;
23078;SDS011;11707;50.830;4.364;2023-11-19T01:41:03;16.85;;;3.83;;
23078;SDS011;11707;50.830;4.364;2023-11-19T01:43:36;14.60;;;3.13;;
23078;SDS011;11707;50.830;4.364;2023-11-19T01:46:08;16.67;;;3.38;;
23078;SDS011;11707;50.830;4.364;2023-11-19T01:48:37;17.42;;;3.97;;
23078;SDS011;11707;50.830;4.364;2023-11-19T01:51:07;19.65;;;4.13;;
23078;SDS011;11707;50.830;4.364;2023-11-19T01:53:34;15.73;;;3.65;;
23078;SDS011;11707;50.830;4.364;2023-11-19T01:56:03;19.58;;;3.92;;
23078;SDS011;11707;50.830;4.364;2023-11-19T01:58:34;17.88;;;3.78;;
23078;SDS011;11707;50.830;4.364;2023-11-19T02:01:00;22.58;;;3.58;;
23078;SDS011;11707;50.830;4.364;2023-11-19T02:03:29;14.52;;;4.10;;
23078;SDS011;11707;50.830;4.364;2023-11-19T02:05:57;15.65;;;3.50;;
23078;SDS011;11707;50.830;4.364;2023-11-19T02:08:26;19.67;;;4.57;;
23078;SDS011;11707;50.830;4.364;2023-11-19T02:10:52;22.13;;;4.80;;
23078;SDS011;11707;50.830;4.364;2023-11-19T02:13:22;15.73;;;4.43;;
23078;SDS011;11707;50.830;4.364;2023-11-19T02:15:48;15.30;;;3.53;;
23078;SDS011;11707;50.830;4.364;2023-11-19T02:18:19;20.63;;;3.88;;
23078;SDS011;11707;50.830;4.364;2023-11-19T02:20:53;19.58;;;4.47;;
23078;SDS011;11707;50.830;4.364;2023-11-19T02:23:19;22.17;;;3.97;;
23078;SDS011;11707;50.830;4.364;2023-11-19T02:25:54;20.85;;;3.85;;
23078;SDS011;11707;50.830;4.364;2023-11-19T02:28:30;17.65;;;3.70;;
23078;SDS011;11707;50.830;4.364;2023-11-19T02:30:58;23.42;;;4.18;;
23078;SDS011;11707;50.830;4.364;2023-11-19T02:33:24;19.00;;;3.40;;
23078;SDS011;11707;50.830;4.364;2023-11-19T02:35:50;19.02;;;4.43;;
23078;SDS011;11707;50.830;4.364;2023-11-19T02:38:18;18.25;;;4.22;;
23078;SDS011;11707;50.830;4.364;2023-11-19T02:40:44;21.90;;;4.18;;
23078;SDS011;11707;50.830;4.364;2023-11-19T02:43:09;23.35;;;4.50;;
23078;SDS011;11707;50.830;4.364;2023-11-19T02:45:38;24.17;;;4.70;;
23078;SDS011;11707;50.830;4.364;2023-11-19T02:48:07;20.27;;;3.92;;
23078;SDS011;11707;50.830;4.364;2023-11-19T02:50:34;28.33;;;4.35;;
23078;SDS011;11707;50.830;4.364;2023-11-19T02:53:02;26.67;;;5.40;;
23078;SDS011;11707;50.830;4.364;2023-11-19T02:55:28;18.80;;;4.85;;
23078;SDS011;11707;50.830;4.364;2023-11-19T02:57:59;23.15;;;3.92;;
23078;SDS011;11707;50.830;4.364;2023-11-19T03:00:25;18.95;;;4.93;;
23078;SDS011;11707;50.830;4.364;2023-11-19T03:03:00;22.27;;;4.30;;
23078;SDS011;11707;50.830;4.364;2023-11-19T03:05:47;20.55;;;3.78;;
23078;SDS011;11707;50.830;4.364;2023-11-19T03:08:16;20.83;;;4.57;;
23078;SDS011;11707;50.830;4.364;2023-11-19T03:10:45;17.40;;;3.85;;
23078;SDS011;11707;50.830;4.364;2023-11-19T03:13:11;21.55;;;3.72;;
23078;SDS011;11707;50.830;4.364;2023-11-19T03:15:40;22.52;;;4.03;;
23078;SDS011;11707;50.830;4.364;2023-11-19T03:18:07;21.88;;;3.78;;
23078;SDS011;11707;50.830;4.364;2023-11-19T03:20:33;25.40;;;3.78;;
23078;SDS011;11707;50.830;4.364;2023-11-19T03:22:58;24.67;;;4.25;;
23078;SDS011;11707;50.830;4.364;2023-11-19T03:25:26;18.95;;;3.60;;
23078;SDS011;11707;50.830;4.364;2023-11-19T03:28:01;27.52;;;4.65;;
23078;SDS011;11707;50.830;4.364;2023-11-19T03:30:28;27.65;;;4.55;;
23078;SDS011;11707;50.830;4.364;2023-11-19T03:32:55;22.20;;;4.15;;
23078;SDS011;11707;50.830;4.364;2023-11-19T03:35:22;22.98;;;4.03;;
23078;SDS011;11707;50.830;4.364;2023-11-19T03:37:49;23.08;;;4.40;;
23078;SDS011;11707;50.830;4.364;2023-11-19T03:40:18;28.40;;;5.32;;
23078;SDS011;11707;50.830;4.364;2023-11-19T03:42:44;22.33;;;4.22;;
23078;SDS011;11707;50.830;4.364;2023-11-19T03:45:13;23.83;;;3.58;;
23078;SDS011;11707;50.830;4.364;2023-11-19T03:47:41;25.02;;;4.70;;
23078;SDS011;11707;50.830;4.364;2023-11-19T03:50:09;26.30;;;3.92;;
23078;SDS011;11707;50.830;4.364;2023-11-19T03:52:35;16.20;;;4.18;;
23078;SDS011;11707;50.830;4.364;2023-11-19T03:55:01;20.52;;;4.22;;
23078;SDS011;11707;50.830;4.364;2023-11-19T03:57:30;16.25;;;3.38;;
23078;SDS011;11707;50.830;4.364;2023-11-19T04:00:00;20.60;;;4.85;;
23078;SDS011;11707;50.830;4.364;2023-11-19T04:02:32;22.08;;;4.63;;
23078;SDS011;11707;50.830;4.364;2023-11-19T04:04:58;17.85;;;4.55;;
23078;SDS011;11707;50.830;4.364;2023-11-19T04:07:24;27.23;;;4.78;;
23078;SDS011;11707;50.830;4.364;2023-11-19T04:09:49;30.30;;;5.38;;
23078;SDS011;11707;50.830;4.364;2023-11-19T04:12:15;20.35;;;4.13;;
23078;SDS011;11707;50.830;4.364;2023-11-19T04:14:41;21.55;;;4.68;;
23078;SDS011;11707;50.830;4.364;2023-11-19T04:17:07;19.23;;;4.38;;
23078;SDS011;11707;50.830;4.364;2023-11-19T04:19:33;25.40;;;4.72;;
23078;SDS011;11707;50.830;4.364;2023-11-19T04:22:01;20.42;;;4.65;;
23078;SDS011;11707;50.830;4.364;2023-11-19T04:24:27;23.25;;;4.95;;
23078;SDS011;11707;50.830;4.364;2023-11-19T04:26:53;22.48;;;4.63;;
23078;SDS011;11707;50.830;4.364;2023-11-19T04:29:18;23.60;;;6.05;;
23078;SDS011;11707;50.830;4.364;2023-11-19T04:31:44;31.42;;;5.85;;
23078;SDS011;11707;50.830;4.364;2023-11-19T04:34:11;27.73;;;5.63;;
23078;SDS011;11707;50.830;4.364;2023-11-19T04:36:37;23.10;;;4.20;;
23078;SDS011;11707;50.830;4.364;2023-11-19T04:39:03;22.65;;;4.10;;
23078;SDS011;11707;50.830;4.364;2023-11-19T04:41:41;21.80;;;4.32;;
23078;SDS011;11707;50.830;4.364;2023-11-19T04:44:14;26.90;;;5.47;;
23078;SDS011;11707;50.830;4.364;2023-11-19T04:46:43;34.13;;;5.90;;
23078;SDS011;11707;50.830;4.364;2023-11-19T04:49:09;30.25;;;4.80;;
23078;SDS011;11707;50.830;4.364;2023-11-19T04:51:39;27.17;;;5.50;;
23078;SDS011;11707;50.830;4.364;2023-11-19T04:54:06;28.27;;;4.68;;
23078;SDS011;11707;50.830;4.364;2023-11-19T04:56:33;30.88;;;6.45;;
23078;SDS011;11707;50.830;4.364;2023-11-19T04:59:01;24.00;;;4.93;;
23078;SDS011;11707;50.830;4.364;2023-11-19T05:01:27;26.00;;;5.32;;
23078;SDS011;11707;50.830;4.364;2023-11-19T05:03:52;31.52;;;6.03;;
23078;SDS011;11707;50.830;4.364;2023-11-19T05:06:18;30.40;;;5.15;;
23078;SDS011;11707;50.830;4.364;2023-11-19T05:08:44;31.77;;;6.43;;
23078;SDS011;11707;50.830;4.364;2023-11-19T05:11:13;26.85;;;5.07;;
23078;SDS011;11707;50.830;4.364;2023-11-19T05:13:42;32.50;;;6.32;;
23078;SDS011;11707;50.830;4.364;2023-11-19T05:16:10;25.77;;;5.50;;
23078;SDS011;11707;50.830;4.364;2023-11-19T05:18:35;26.20;;;5.93;;
23078;SDS011;11707;50.830;4.364;2023-11-19T05:21:03;33.67;;;5.93;;
23078;SDS011;11707;50.830;4.364;2023-11-19T05:23:29;26.67;;;5.32;;
23078;SDS011;11707;50.830;4.364;2023-11-19T05:25:58;35.67;;;4.75;;
23078;SDS011;11707;50.830;4.364;2023-11-19T05:28:25;24.70;;;4.32;;
23078;SDS011;11707;50.830;4.364;2023-11-19T05:30:51;34.63;;;7.10;;
23078;SDS011;11707;50.830;4.364;2023-11-19T05:33:19;41.55;;;7.40;;
23078;SDS011;11707;50.830;4.364;2023-11-19T05:35:44;31.23;;;5.57;;
23078;SDS011;11707;50.830;4.364;2023-11-19T05:38:10;28.75;;;5.85;;
23078;SDS011;11707;50.830;4.364;2023-11-19T05:40:36;29.92;;;4.32;;
23078;SDS011;11707;50.830;4.364;2023-11-19T05:43:03;31.08;;;6.47;;
23078;SDS011;11707;50.830;4.364;2023-11-19T05:45:30;35.15;;;5.38;;
23078;SDS011;11707;50.830;4.364;2023-11-19T05:47:57;22.98;;;4.88;;
23078;SDS011;11707;50.830;4.364;2023-11-19T05:50:23;29.77;;;6.85;;
23078;SDS011;11707;50.830;4.364;2023-11-19T05:52:49;38.50;;;5.93;;
23078;SDS011;11707;50.830;4.364;2023-11-19T05:55:14;33.20;;;6.40;;
23078;SDS011;11707;50.830;4.364;2023-11-19T05:57:40;43.95;;;7.18;;
23078;SDS011;11707;50.830;4.364;2023-11-19T06:00:06;27.45;;;5.45;;
23078;SDS011;11707;50.830;4.364;2023-11-19T06:02:33;36.85;;;6.07;;
23078;SDS011;11707;50.830;4.364;2023-11-19T06:04:59;24.85;;;5.75;;
23078;SDS011;11707;50.830;4.364;2023-11-19T06:07:26;30.40;;;5.88;;
23078;SDS011;11707;50.830;4.364;2023-11-19T06:09:53;27.95;;;6.78;;
23078;SDS011;11707;50.830;4.364;2023-11-19T06:12:18;28.85;;;5.40;;
23078;SDS011;11707;50.830;4.364;2023-11-19T06:14:44;29.13;;;5.82;;
23078;SDS011;11707;50.830;4.364;2023-11-19T06:17:10;39.65;;;5.47;;
23078;SDS011;11707;50.830;4.364;2023-11-19T06:19:38;35.35;;;5.18;;
23078;SDS011;11707;50.830;4.364;2023-11-19T06:22:04;35.53;;;5.63;;
23078;SDS011;11707;50.830;4.364;2023-11-19T06:24:32;36.83;;;5.80;;
23078;SDS011;11707;50.830;4.364;2023-11-19T06:26:58;32.00;;;5.47;;
23078;SDS011;11707;50.830;4.364;2023-11-19T06:29:24;22.45;;;4.97;;
23078;SDS011;11707;50.830;4.364;2023-11-19T06:31:50;35.17;;;6.35;;
23078;SDS011;11707;50.830;4.364;2023-11-19T06:34:18;26.83;;;5.57;;
23078;SDS011;11707;50.830;4.364;2023-11-19T06:36:45;33.70;;;5.05;;
23078;SDS011;11707;50.830;4.364;2023-11-19T06:39:16;37.72;;;5.55;;
23078;SDS011;11707;50.830;4.364;2023-11-19T06:41:48;28.92;;;5.60;;
23078;SDS011;11707;50.830;4.364;2023-11-19T06:44:14;36.42;;;6.05;;
23078;SDS011;11707;50.830;4.364;2023-11-19T06:46:39;28.00;;;5.50;;
23078;SDS011;11707;50.830;4.364;2023-11-19T06:49:05;27.33;;;5.95;;
23078;SDS011;11707;50.830;4.364;2023-11-19T06:51:33;29.00;;;6.60;;
23078;SDS011;11707;50.830;4.364;2023-11-19T06:53:59;30.45;;;4.88;;
23078;SDS011;11707;50.830;4.364;2023-11-19T06:56:25;26.63;;;4.53;;
23078;SDS011;11707;50.830;4.364;2023-11-19T06:58:51;24.60;;;5.38;;
23078;SDS011;11707;50.830;4.364;2023-11-19T07:01:17;32.65;;;6.47;;
23078;SDS011;11707;50.830;4.364;2023-11-19T07:03:46;24.75;;;4.53;;
23078;SDS011;11707;50.830;4.364;2023-11-19T07:06:15;34.00;;;5.60;;
23078;SDS011;11707;50.830;4.364;2023-11-19T07:08:41;32.65;;;5.32;;
23078;SDS011;11707;50.830;4.364;2023-11-19T07:11:10;27.25;;;5.32;;
23078;SDS011;11707;50.830;4.364;2023-11-19T07:13:38;28.80;;;4.88;;
23078;SDS011;11707;50.830;4.364;2023-11-19T07:16:05;33.22;;;4.85;;
23078;SDS011;11707;50.830;4.364;2023-11-19T07:18:34;42.80;;;6.18;;
23078;SDS011;11707;50.830;4.364;2023-11-19T07:21:00;34.25;;;6.10;;
23078;SDS011;11707;50.830;4.364;2023-11-19T07:23:28;31.35;;;4.90;;
23078;SDS011;11707;50.830;4.364;2023-11-19T07:25:53;31.60;;;6.93;;
23078;SDS011;11707;50.830;4.364;2023-11-19T07:28:22;32.03;;;5.32;;
23078;SDS011;11707;50.830;4.364;2023-11-19T07:30:49;22.58;;;4.82;;
23078;SDS011;11707;50.830;4.364;2023-11-19T07:33:16;42.20;;;6.05;;
23078;SDS011;11707;50.830;4.364;2023-11-19T07:35:44;43.70;;;6.43;;
23078;SDS011;11707;50.830;4.364;2023-11-19T07:38:10;33.47;;;5.53;;
23078;SDS011;11707;50.830;4.364;2023-11-19T07:40:40;30.90;;;4.63;;
23078;SDS011;11707;50.830;4.364;2023-11-19T07:43:06;34.22;;;5.35;;
23078;SDS011;11707;50.830;4.364;2023-11-19T07:45:32;31.10;;;5.15;;
23078;SDS011;11707;50.830;4.364;2023-11-19T07:47:59;36.63;;;6.93;;
23078;SDS011;11707;50.830;4.364;2023-11-19T07:50:26;27.05;;;5.85;;
23078;SDS011;11707;50.830;4.364;2023-11-19T07:52:52;26.00;;;5.72;;
23078;SDS011;11707;50.830;4.364;2023-11-19T07:55:18;32.80;;;6.68;;
23078;SDS011;11707;50.830;4.364;2023-11-19T07:57:44;29.48;;;5.63;;
23078;SDS011;11707;50.830;4.364;2023-11-19T08:00:10;27.08;;;5.88;;
23078;SDS011;11707;50.830;4.364;2023-11-19T08:02:39;23.90;;;5.07;;
23078;SDS011;11707;50.830;4.364;2023-11-19T08:05:05;32.83;;;6.32;;
23078;SDS011;11707;50.830;4.364;2023-11-19T08:07:31;30.73;;;5.63;;
23078;SDS011;11707;50.830;4.364;2023-11-19T08:09:56;25.20;;;5.03;;
23078;SDS011;11707;50.830;4.364;2023-11-19T08:12:25;28.77;;;4.97;;
23078;SDS011;11707;50.830;4.364;2023-11-19T08:14:50;28.02;;;5.03;;
23078;SDS011;11707;50.830;4.364;2023-11-19T08:17:16;24.30;;;5.03;;
23078;SDS011;11707;50.830;4.364;2023-11-19T08:19:42;30.20;;;5.07;;
23078;SDS011;11707;50.830;4.364;2023-11-19T08:22:08;22.55;;;5.40;;
23078;SDS011;11707;50.830;4.364;2023-11-19T08:24:35;25.52;;;5.32;;
23078;SDS011;11707;50.830;4.364;2023-11-19T08:27:00;32.40;;;6.05;;
23078;SDS011;11707;50.830;4.364;2023-11-19T08:29:26;26.88;;;5.53;;
23078;SDS011;11707;50.830;4.364;2023-11-19T08:31:52;33.22;;;5.03;;
23078;SDS011;11707;50.830;4.364;2023-11-19T08:34:18;27.58;;;5.07;;
23078;SDS011;11707;50.830;4.364;2023-11-19T08:36:44;42.33;;;6.10;;
23078;SDS011;11707;50.830;4.364;2023-11-19T08:39:10;30.02;;;5.90;;
23078;SDS011;11707;50.830;4.364;2023-11-19T08:41:35;29.75;;;5.88;;
23078;SDS011;11707;50.830;4.364;2023-11-19T08:44:03;20.95;;;5.25;;
23078;SDS011;11707;50.830;4.364;2023-11-19T08:46:30;32.42;;;6.20;;
23078;SDS011;11707;50.830;4.364;2023-11-19T08:48:55;31.73;;;6.95;;
23078;SDS011;11707;50.830;4.364;2023-11-19T08:51:25;31.15;;;5.28;;
23078;SDS011;11707;50.830;4.364;2023-11-19T08:53:51;28.98;;;6.85;;
23078;SDS011;11707;50.830;4.364;2023-11-19T08:56:19;20.98;;;4.45;;
23078;SDS011;11707;50.830;4.364;2023-11-19T08:58:44;23.50;;;5.55;;
23078;SDS011;11707;50.830;4.364;2023-11-19T09:01:12;32.08;;;4.80;;
23078;SDS011;11707;50.830;4.364;2023-11-19T09:03:38;25.77;;;5.88;;
23078;SDS011;11707;50.830;4.364;2023-11-19T09:06:04;31.25;;;6.85;;
23078;SDS011;11707;50.830;4.364;2023-11-19T09:08:30;20.75;;;5.07;;
23078;SDS011;11707;50.830;4.364;2023-11-19T09:10:55;33.78;;;5.30;;
23078;SDS011;11707;50.830;4.364;2023-11-19T09:13:21;22.13;;;5.63;;
23078;SDS011;11707;50.830;4.364;2023-11-19T09:15:50;42.88;;;4.80;;
23078;SDS011;11707;50.830;4.364;2023-11-19T09:18:18;31.85;;;5.10;;
23078;SDS011;11707;50.830;4.364;2023-11-19T09:20:43;25.88;;;4.68;;
23078;SDS011;11707;50.830;4.364;2023-11-19T09:23:10;32.95;;;4.78;;
23078;SDS011;11707;50.830;4.364;2023-11-19T09:25:37;27.77;;;5.45;;
23078;SDS011;11707;50.830;4.364;2023-11-19T09:28:03;21.55;;;4.72;;
23078;SDS011;11707;50.830;4.364;2023-11-19T09:30:31;15.82;;;3.80;;
23078;SDS011;11707;50.830;4.364;2023-11-19T09:32:58;21.60;;;4.65;;
23078;SDS011;11707;50.830;4.364;2023-11-19T09:35:27;21.05;;;4.00;;
23078;SDS011;11707;50.830;4.364;2023-11-19T09:37:54;28.00;;;5.88;;
23078;SDS011;11707;50.830;4.364;2023-11-19T09:40:19;16.60;;;4.30;;
23078;SDS011;11707;50.830;4.364;2023-11-19T09:42:45;28.80;;;5.40;;
23078;SDS011;11707;50.830;4.364;2023-11-19T09:45:13;39.97;;;5.25;;
23078;SDS011;11707;50.830;4.364;2023-11-19T09:47:44;27.73;;;4.80;;
23078;SDS011;11707;50.830;4.364;2023-11-19T09:50:18;23.92;;;5.10;;
23078;SDS011;11707;50.830;4.364;2023-11-19T09:55:10;25.20;;;4.75;;
23078;SDS011;11707;50.830;4.364;2023-11-19T09:57:38;18.17;;;3.95;;
23078;SDS011;11707;50.830;4.364;2023-11-19T10:00:05;23.65;;;4.63;;
23078;SDS011;11707;50.830;4.364;2023-11-19T10:02:35;24.13;;;4.57;;
23078;SDS011;11707;50.830;4.364;2023-11-19T10:05:04;24.70;;;3.88;;
23078;SDS011;11707;50.830;4.364;2023-11-19T10:07:33;15.57;;;4.45;;
23078;SDS011;11707;50.830;4.364;2023-11-19T10:10:00;28.58;;;4.35;;
23078;SDS011;11707;50.830;4.364;2023-11-19T10:12:27;29.25;;;5.35;;
23078;SDS011;11707;50.830;4.364;2023-11-19T10:14:56;25.27;;;4.57;;
23078;SDS011;11707;50.830;4.364;2023-11-19T10:17:27;33.90;;;5.60;;
23078;SDS011;11707;50.830;4.364;2023-11-19T10:19:59;21.77;;;4.22;;
23078;SDS011;11707;50.830;4.364;2023-11-19T10:22:25;22.70;;;3.83;;
23078;SDS011;11707;50.830;4.364;2023-11-19T10:24:53;21.40;;;5.15;;
23078;SDS011;11707;50.830;4.364;2023-11-19T10:27:18;34.63;;;4.93;;
23078;SDS011;11707;50.830;4.364;2023-11-19T10:29:47;21.77;;;5.50;;
23078;SDS011;11707;50.830;4.364;2023-11-19T10:32:13;23.30;;;5.32;;
23078;SDS011;11707;50.830;4.364;2023-11-19T10:34:42;20.45;;;4.13;;
23078;SDS011;11707;50.830;4.364;2023-11-19T10:37:08;16.13;;;3.55;;
23078;SDS011;11707;50.830;4.364;2023-11-19T10:40:08;28.17;;;6.18;;
23078;SDS011;11707;50.830;4.364;2023-11-19T10:42:30;25.73;;;3.78;;
23078;SDS011;11707;50.830;4.364;2023-11-19T10:44:55;20.35;;;3.42;;
23078;SDS011;11707;50.830;4.364;2023-11-19T10:47:22;17.75;;;4.03;;
23078;SDS011;11707;50.830;4.364;2023-11-19T10:49:48;17.00;;;3.63;;
23078;SDS011;11707;50.830;4.364;2023-11-19T10:52:17;15.15;;;4.25;;
23078;SDS011;11707;50.830;4.364;2023-11-19T10:54:50;28.42;;;6.28;;
23078;SDS011;11707;50.830;4.364;2023-11-19T10:57:19;18.15;;;3.80;;
23078;SDS011;11707;50.830;4.364;2023-11-19T10:59:49;22.08;;;4.70;;
23078;SDS011;11707;50.830;4.364;2023-11-19T11:02:21;19.95;;;4.15;;
23078;SDS011;11707;50.830;4.364;2023-11-19T11:04:50;25.33;;;4.75;;
23078;SDS011;11707;50.830;4.364;2023-11-19T11:07:21;26.40;;;4.20;;
23078;SDS011;11707;50.830;4.364;2023-11-19T11:09:51;33.35;;;5.97;;
23078;SDS011;11707;50.830;4.364;2023-11-19T11:12:18;23.65;;;4.88;;
23078;SDS011;11707;50.830;4.364;2023-11-19T11:14:48;30.77;;;4.55;;
23078;SDS011;11707;50.830;4.364;2023-11-19T11:17:16;22.45;;;4.40;;
23078;SDS011;11707;50.830;4.364;2023-11-19T11:19:45;29.08;;;5.90;;
23078;SDS011;11707;50.830;4.364;2023-11-19T11:22:11;26.67;;;5.40;;
23078;SDS011;11707;50.830;4.364;2023-11-19T11:30:55;32.83;;;5.82;;
23078;SDS011;11707;50.830;4.364;2023-11-19T11:33:40;19.58;;;4.63;;
23078;SDS011;11707;50.830;4.364;2023-11-19T11:36:24;38.42;;;6.40;;
23078;SDS011;11707;50.830;4.364;2023-11-19T11:38:54;23.75;;;5.50;;
23078;SDS011;11707;50.830;4.364;2023-11-19T11:41:26;27.35;;;6.20;;
23078;SDS011;11707;50.830;4.364;2023-11-19T11:43:52;30.52;;;5.85;;
23078;SDS011;11707;50.830;4.364;2023-11-19T11:49:00;24.40;;;5.22;;
23078;SDS011;11707;50.830;4.364;2023-11-19T11:57:04;25.30;;;5.30;;
23078;SDS011;11707;50.830;4.364;2023-11-19T12:02:11;28.33;;;5.25;;
23078;SDS011;11707;50.830;4.364;2023-11-19T12:04:42;27.88;;;4.72;;
23078;SDS011;11707;50.830;4.364;2023-11-19T12:07:08;18.58;;;4.43;;
23078;SDS011;11707;50.830;4.364;2023-11-19T12:09:42;23.67;;;5.18;;
23078;SDS011;11707;50.830;4.364;2023-11-19T12:20:03;15.63;;;2.97;;
23078;SDS011;11707;50.830;4.364;2023-11-19T12:22:35;18.95;;;3.33;;
23078;SDS011;11707;50.830;4.364;2023-11-19T12:25:02;21.92;;;4.13;;
23078;SDS011;11707;50.830;4.364;2023-11-19T12:27:34;19.15;;;3.55;;
23078;SDS011;11707;50.830;4.364;2023-11-19T12:30:00;23.70;;;3.97;;
23078;SDS011;11707;50.830;4.364;2023-11-19T12:32:39;22.77;;;4.97;;
23078;SDS011;11707;50.830;4.364;2023-11-19T12:35:12;20.67;;;4.88;;
23078;SDS011;11707;50.830;4.364;2023-11-19T12:37:44;19.58;;;4.70;;
23078;SDS011;11707;50.830;4.364;2023-11-19T12:42:45;25.83;;;5.63;;
23078;SDS011;11707;50.830;4.364;2023-11-19T12:45:14;21.02;;;4.95;;
23078;SDS011;11707;50.830;4.364;2023-11-19T12:47:41;24.90;;;5.97;;
23078;SDS011;11707;50.830;4.364;2023-11-19T12:50:07;22.02;;;4.80;;
23078;SDS011;11707;50.830;4.364;2023-11-19T12:52:35;26.15;;;5.45;;
23078;SDS011;11707;50.830;4.364;2023-11-19T12:55:02;25.80;;;4.95;;
23078;SDS011;11707;50.830;4.364;2023-11-19T12:57:49;23.35;;;5.30;;
23078;SDS011;11707;50.830;4.364;2023-11-19T13:00:23;21.98;;;5.07;;
23078;SDS011;11707;50.830;4.364;2023-11-19T13:02:55;28.33;;;5.60;;
23078;SDS011;11707;50.830;4.364;2023-11-19T13:07:59;28.65;;;5.57;;
23078;SDS011;11707;50.830;4.364;2023-11-19T13:10:30;16.58;;;3.83;;
23078;SDS011;11707;50.830;4.364;2023-11-19T13:13:08;26.20;;;5.78;;
23078;SDS011;11707;50.830;4.364;2023-11-19T13:15:34;20.95;;;4.78;;
23078;SDS011;11707;50.830;4.364;2023-11-19T13:18:00;21.55;;;4.93;;
23078;SDS011;11707;50.830;4.364;2023-11-19T13:20:27;21.40;;;6.07;;
23078;SDS011;11707;50.830;4.364;2023-11-19T13:23:00;20.00;;;4.68;;
23078;SDS011;11707;50.830;4.364;2023-11-19T13:25:28;21.45;;;4.63;;
23078;SDS011;11707;50.830;4.364;2023-11-19T13:27:57;25.20;;;4.63;;
23078;SDS011;11707;50.830;4.364;2023-11-19T13:30:23;21.48;;;4.45;;
23078;SDS011;11707;50.830;4.364;2023-11-19T13:32:50;22.23;;;4.35;;
23078;SDS011;11707;50.830;4.364;2023-11-19T13:35:17;27.33;;;4.93;;
23078;SDS011;11707;50.830;4.364;2023-11-19T13:37:46;27.55;;;5.28;;
23078;SDS011;11707;50.830;4.364;2023-11-19T13:40:11;26.98;;;5.35;;
23078;SDS011;11707;50.830;4.364;2023-11-19T13:42:41;22.63;;;4.75;;
23078;SDS011;11707;50.830;4.364;2023-11-19T13:45:16;23.70;;;5.45;;
23078;SDS011;11707;50.830;4.364;2023-11-19T13:47:43;19.58;;;4.10;;
23078;SDS011;11707;50.830;4.364;2023-11-19T13:50:14;24.48;;;5.72;;
23078;SDS011;11707;50.830;4.364;2023-11-19T13:52:42;22.50;;;5.65;;
23078;SDS011;11707;50.830;4.364;2023-11-19T13:55:10;24.23;;;6.90;;
23078;SDS011;11707;50.830;4.364;2023-11-19T13:57:36;20.70;;;4.75;;
23078;SDS011;11707;50.830;4.364;2023-11-19T14:00:04;28.27;;;4.72;;
23078;SDS011;11707;50.830;4.364;2023-11-19T14:02:32;27.02;;;5.38;;
23078;SDS011;11707;50.830;4.364;2023-11-19T14:04:58;22.20;;;5.00;;
23078;SDS011;11707;50.830;4.364;2023-11-19T14:07:24;28.88;;;5.65;;
23078;SDS011;11707;50.830;4.364;2023-11-19T14:09:50;25.35;;;5.85;;
23078;SDS011;11707;50.830;4.364;2023-11-19T14:12:16;20.33;;;4.25;;
23078;SDS011;11707;50.830;4.364;2023-11-19T14:14:45;18.33;;;4.00;;
23078;SDS011;11707;50.830;4.364;2023-11-19T14:17:11;21.50;;;5.13;;
23078;SDS011;11707;50.830;4.364;2023-11-19T14:19:40;18.65;;;5.10;;
23078;SDS011;11707;50.830;4.364;2023-11-19T14:22:09;32.90;;;6.15;;
23078;SDS011;11707;50.830;4.364;2023-11-19T14:24:37;24.40;;;5.85;;
23078;SDS011;11707;50.830;4.364;2023-11-19T14:27:04;27.35;;;5.57;;
23078;SDS011;11707;50.830;4.364;2023-11-19T14:29:30;22.85;;;5.03;;
23078;SDS011;11707;50.830;4.364;2023-11-19T14:31:56;26.48;;;5.50;;
23078;SDS011;11707;50.830;4.364;2023-11-19T14:34:23;25.25;;;4.60;;
23078;SDS011;11707;50.830;4.364;2023-11-19T14:36:51;21.63;;;5.82;;
23078;SDS011;11707;50.830;4.364;2023-11-19T14:39:17;29.58;;;6.32;;
23078;SDS011;11707;50.830;4.364;2023-11-19T14:41:43;29.23;;;5.57;;
23078;SDS011;11707;50.830;4.364;2023-11-19T14:44:09;33.50;;;6.10;;
23078;SDS011;11707;50.830;4.364;2023-11-19T14:46:35;26.52;;;5.72;;
23078;SDS011;11707;50.830;4.364;2023-11-19T14:49:01;27.30;;;6.03;;
23078;SDS011;11707;50.830;4.364;2023-11-19T14:51:29;23.88;;;5.78;;
23078;SDS011;11707;50.830;4.364;2023-11-19T14:53:55;25.98;;;5.30;;
23078;SDS011;11707;50.830;4.364;2023-11-19T14:56:20;22.60;;;4.45;;
23078;SDS011;11707;50.830;4.364;2023-11-19T14:58:46;24.95;;;5.75;;
23078;SDS011;11707;50.830;4.364;2023-11-19T15:01:12;24.52;;;5.47;;
23078;SDS011;11707;50.830;4.364;2023-11-19T15:03:39;35.78;;;5.38;;
23078;SDS011;11707;50.830;4.364;2023-11-19T15:06:05;35.90;;;5.80;;
23078;SDS011;11707;50.830;4.364;2023-11-19T15:08:32;32.20;;;6.10;;
23078;SDS011;11707;50.830;4.364;2023-11-19T15:11:00;29.80;;;6.10;;